createdAt,value
2019-05-25T00:02:59.889Z,9.37
2019-05-25T00:08:01.985Z,8.43
2019-05-25T00:13:04.046Z,7.37
2019-05-25T00:18:06.177Z,7.13
2019-05-25T00:23:09.135Z,6.20
2019-05-25T00:28:11.194Z,6.33
2019-05-25T00:33:13.231Z,8.57
2019-05-25T00:38:15.293Z,6.80
2019-05-25T00:43:17.437Z,6.97
2019-05-25T00:48:19.471Z,7.07
2019-05-25T00:53:21.566Z,6.37
2019-05-25T00:58:23.611Z,9.60
2019-05-25T01:03:25.653Z,8.87
2019-05-25T01:08:27.724Z,12.30
2019-05-25T01:13:29.781Z,8.37
2019-05-25T01:18:31.828Z,8.73
2019-05-25T01:23:33.929Z,8.73
2019-05-25T01:28:37.879Z,12.27
2019-05-25T01:33:39.929Z,9.53
2019-05-25T01:38:41.980Z,10.60
2019-05-25T01:43:44.038Z,10.73
2019-05-25T01:48:46.114Z,10.40
2019-05-25T01:53:48.219Z,10.83
2019-05-25T01:58:50.247Z,10.90
2019-05-25T02:03:52.344Z,11.03
2019-05-25T02:08:54.455Z,10.80
2019-05-25T02:13:56.636Z,10.67
2019-05-25T02:18:58.744Z,11.20
2019-05-25T02:24:01.627Z,11.07
2019-05-25T02:29:03.857Z,11.50
2019-05-25T02:34:05.934Z,9.43
2019-05-25T02:39:08.004Z,11.03
2019-05-25T02:44:10.088Z,10.80
2019-05-25T02:49:12.154Z,10.47
2019-05-25T02:54:14.325Z,11.00
2019-05-25T02:59:16.394Z,11.87
2019-05-25T03:04:19.385Z,11.43
2019-05-25T03:09:22.476Z,12.77
2019-05-25T03:14:24.530Z,14.33
2019-05-25T03:19:26.680Z,11.83
2019-05-25T03:24:28.721Z,12.97
2019-05-25T03:29:30.827Z,14.47
2019-05-25T03:34:32.882Z,12.83
2019-05-25T03:39:35.081Z,11.63
2019-05-25T03:44:37.158Z,11.67
2019-05-25T03:49:39.222Z,12.23
2019-05-25T03:54:41.375Z,12.23
2019-05-25T03:59:43.473Z,11.83
2019-05-25T04:04:45.614Z,10.27
2019-05-25T04:09:47.685Z,8.97
2019-05-25T04:14:49.757Z,11.33
2019-05-25T04:19:51.795Z,7.57
2019-05-25T04:24:53.831Z,7.30
2019-05-25T04:29:55.910Z,11.40
2019-05-25T04:34:57.937Z,8.90
2019-05-25T04:39:59.966Z,6.17
2019-05-25T04:45:04.495Z,7.90
2019-05-25T04:50:07.755Z,6.87
2019-05-25T04:55:10.444Z,8.83
2019-05-25T05:00:12.851Z,11.00
2019-05-25T05:05:15.302Z,11.73
2019-05-25T05:10:19.496Z,7.03
2019-05-25T05:15:23.294Z,6.73
2019-05-25T05:20:25.335Z,6.67
2019-05-25T05:25:27.453Z,8.20
2019-05-25T05:30:33.655Z,6.40
2019-05-25T05:35:39.085Z,11.17
2019-05-25T05:40:43.326Z,6.70
2019-05-25T05:45:47.813Z,5.97
2019-05-25T05:50:51.945Z,7.03
2019-05-25T05:55:54.127Z,7.57
2019-05-25T06:00:56.216Z,7.00
2019-05-25T06:05:58.448Z,5.17
2019-05-25T06:11:00.483Z,5.87
2019-05-25T06:16:02.721Z,8.20
2019-05-25T06:21:04.958Z,5.20
2019-05-25T06:26:07.037Z,5.27
2019-05-25T06:31:09.056Z,6.28
2019-05-25T06:36:11.166Z,5.25
2019-05-25T06:41:13.230Z,6.03
2019-05-25T06:46:15.328Z,3.98
2019-05-25T06:51:17.498Z,7.83
2019-05-25T06:56:19.536Z,8.28
2019-05-25T07:01:21.614Z,5.25
2019-05-25T07:06:23.806Z,4.33
2019-05-25T07:11:25.858Z,4.12
2019-05-25T07:16:27.895Z,4.67
2019-05-25T07:21:29.962Z,6.45
2019-05-25T07:26:32.197Z,6.77
2019-05-25T07:31:34.860Z,5.80
2019-05-25T07:36:37.032Z,6.15
2019-05-25T07:41:39.245Z,6.17
2019-05-25T07:46:43.310Z,5.80
2019-05-25T07:51:45.380Z,7.37
2019-05-25T07:56:47.827Z,4.00
2019-05-25T08:01:50.042Z,5.30
2019-05-25T08:06:52.057Z,3.37
2019-05-25T08:11:54.222Z,4.20
2019-05-25T08:16:56.261Z,4.97
2019-05-25T08:21:58.388Z,7.83
2019-05-25T08:27:00.542Z,4.83
2019-05-25T08:32:02.638Z,4.57
2019-05-25T08:37:04.756Z,5.93
2019-05-25T08:42:06.911Z,6.57
2019-05-25T08:47:08.982Z,6.90
2019-05-25T08:52:11.097Z,5.27
2019-05-25T08:57:17.833Z,5.80
2019-05-25T09:02:17.266Z,6.10
2019-05-25T09:07:19.331Z,5.43
2019-05-25T09:12:21.375Z,5.67
2019-05-25T09:17:23.498Z,5.57
2019-05-25T09:22:25.546Z,6.77
2019-05-25T09:27:27.622Z,5.27
2019-05-25T09:32:29.792Z,7.43
2019-05-25T09:37:37.251Z,6.23
2019-05-25T09:42:40.075Z,6.97
2019-05-25T09:47:42.451Z,7.97
2019-05-25T09:52:44.554Z,7.70
2019-05-25T09:57:49.445Z,9.73
2019-05-25T10:02:51.863Z,10.33
2019-05-25T10:07:54.144Z,10.33
2019-05-25T10:12:56.465Z,11.63
2019-05-25T10:17:58.582Z,12.73
2019-05-25T10:23:00.842Z,11.80
2019-05-25T10:28:03.063Z,12.37
2019-05-25T10:33:05.117Z,16.33
2019-05-25T10:38:07.214Z,14.00
2019-05-25T10:43:09.373Z,15.60
2019-05-25T10:48:11.422Z,15.58
2019-05-25T10:53:13.524Z,13.15
2019-05-25T10:58:15.626Z,13.50
2019-05-25T11:03:19.515Z,13.18
2019-05-25T11:08:21.641Z,11.43
2019-05-25T11:13:23.728Z,14.93
2019-05-25T11:18:27.424Z,13.13
2019-05-25T11:23:29.624Z,14.30
2019-05-25T11:28:32.177Z,13.40
2019-05-25T11:33:36.396Z,13.83
2019-05-25T11:38:38.336Z,16.07
2019-05-25T11:43:40.403Z,13.80
2019-05-25T11:48:42.963Z,19.67
2019-05-25T11:53:45.200Z,15.03
2019-05-25T11:58:47.989Z,14.18
2019-05-25T12:03:50.376Z,17.65
2019-05-25T12:08:52.439Z,13.83
2019-05-25T12:13:56.906Z,15.05
2019-05-25T12:18:59.199Z,17.90
2019-05-25T12:24:01.283Z,15.87
2019-05-25T12:29:03.522Z,13.97
2019-05-25T12:34:05.566Z,16.42
2019-05-25T12:39:07.926Z,14.73
2019-05-25T12:44:09.955Z,17.17
2019-05-25T12:49:12.092Z,16.60
2019-05-25T12:54:14.178Z,13.13
2019-05-25T12:59:18.600Z,12.27
2019-05-25T13:04:20.634Z,11.17
2019-05-25T13:09:22.694Z,12.03
2019-05-25T13:14:25.137Z,11.40
2019-05-25T13:19:27.234Z,10.37
2019-05-25T13:24:29.396Z,11.50
2019-05-25T13:29:31.591Z,11.73
2019-05-25T13:34:33.662Z,13.35
2019-05-25T13:39:35.763Z,10.83
2019-05-25T13:44:37.924Z,8.67
2019-05-25T13:49:40.000Z,10.80
2019-05-25T13:54:42.236Z,9.50
2019-05-25T13:59:44.428Z,9.30
2019-05-25T14:04:46.812Z,8.03
2019-05-25T14:09:48.936Z,11.63
2019-05-25T14:14:50.970Z,11.23
2019-05-25T14:19:53.142Z,9.93
2019-05-25T14:24:55.275Z,13.03
2019-05-25T14:29:57.261Z,11.20
2019-05-25T14:34:59.285Z,9.37
2019-05-25T14:40:01.417Z,11.68
2019-05-25T14:45:04.537Z,11.20
2019-05-25T14:50:07.475Z,11.60
2019-05-25T14:55:10.329Z,9.53
2019-05-25T15:00:13.583Z,9.73
2019-05-25T15:05:15.652Z,11.43
2019-05-25T15:10:17.898Z,9.27
2019-05-25T15:15:20.061Z,9.90
2019-05-25T15:20:22.149Z,32.00
2019-05-25T15:25:24.182Z,9.60
2019-05-25T15:30:26.333Z,10.20
2019-05-25T15:35:28.612Z,11.03
2019-05-25T15:40:30.707Z,9.67
2019-05-25T15:45:32.859Z,9.83
2019-05-25T15:50:35.065Z,11.20
2019-05-25T15:55:37.137Z,11.67
2019-05-25T16:00:46.909Z,10.67
2019-05-25T16:05:49.185Z,10.00
2019-05-25T16:10:51.145Z,10.50
2019-05-25T16:15:53.215Z,9.20
2019-05-25T16:20:55.412Z,9.90
2019-05-25T16:25:57.466Z,12.47
2019-05-25T16:30:59.547Z,8.67
2019-05-25T16:36:03.554Z,10.10
2019-05-25T16:41:05.607Z,12.57
2019-05-25T16:46:07.685Z,9.60
2019-05-25T16:51:09.773Z,8.03
2019-05-25T16:56:13.534Z,9.17
2019-05-25T17:01:18.017Z,7.03
2019-05-25T17:06:20.845Z,8.97
2019-05-25T17:11:22.915Z,7.87
2019-05-25T17:16:24.874Z,8.00
2019-05-25T17:21:26.961Z,5.93
2019-05-25T17:26:29.109Z,9.70
2019-05-25T17:31:31.173Z,7.70
2019-05-25T17:36:33.221Z,7.23
2019-05-25T17:41:35.407Z,7.00
2019-05-25T17:46:39.460Z,6.83
2019-05-25T17:51:44.321Z,7.13
2019-05-25T17:56:48.827Z,8.70
2019-05-25T18:01:50.989Z,8.43
2019-05-25T18:06:54.527Z,8.17
2019-05-25T18:11:56.583Z,13.33
2019-05-25T18:16:58.746Z,11.03
2019-05-25T18:22:09.902Z,13.70
2019-05-25T18:27:14.757Z,7.57
2019-05-25T18:32:18.026Z,11.20
2019-05-25T18:37:20.081Z,7.17
2019-05-25T18:42:22.222Z,8.53
2019-05-25T18:47:24.357Z,7.27
2019-05-25T18:52:28.852Z,6.50
2019-05-25T18:57:35.796Z,8.87
2019-05-25T19:02:38.080Z,6.87
2019-05-25T19:07:40.309Z,9.37
2019-05-25T19:12:44.772Z,9.17
2019-05-25T19:17:46.894Z,7.33
2019-05-25T19:22:49.115Z,6.60
2019-05-25T19:27:51.430Z,8.13
2019-05-25T19:32:53.523Z,5.10
2019-05-25T19:37:55.633Z,4.97
2019-05-25T19:42:57.776Z,7.30
2019-05-25T19:48:00.983Z,8.40
2019-05-25T19:53:03.359Z,7.57
2019-05-25T19:58:05.481Z,5.03
2019-05-25T20:03:07.617Z,7.67
2019-05-25T20:08:09.734Z,6.90
2019-05-25T20:13:11.847Z,5.33
2019-05-25T20:18:13.983Z,4.87
2019-05-25T20:23:16.074Z,4.13
2019-05-25T20:28:19.489Z,3.97
2019-05-25T20:33:27.726Z,3.87
2019-05-25T20:38:25.867Z,5.33
2019-05-25T20:43:27.914Z,4.80
2019-05-25T20:48:29.963Z,5.07
2019-05-25T20:53:32.130Z,5.47
2019-05-25T20:58:35.809Z,7.50
2019-05-25T21:03:37.906Z,4.97
2019-05-25T21:08:40.005Z,7.20
2019-05-25T21:13:42.232Z,6.13
2019-05-25T21:18:44.374Z,6.27
2019-05-25T21:23:46.524Z,5.63
2019-05-25T21:28:49.741Z,6.73
2019-05-25T21:33:51.763Z,7.03
2019-05-25T21:38:53.857Z,3.00
2019-05-25T21:43:55.875Z,3.90
2019-05-25T21:48:58.138Z,7.43
2019-05-25T21:54:00.155Z,5.30
2019-05-25T21:59:02.233Z,5.43
2019-05-25T22:04:04.280Z,3.97
2019-05-25T22:09:07.478Z,5.83
2019-05-25T22:14:09.540Z,4.53
2019-05-25T22:19:11.637Z,7.53
2019-05-25T22:24:13.713Z,4.40
2019-05-25T22:29:15.815Z,4.50
2019-05-25T22:34:17.880Z,5.87
2019-05-25T22:39:20.026Z,5.13
2019-05-25T22:44:21.970Z,6.50
2019-05-25T22:49:24.040Z,5.10
2019-05-25T22:54:26.141Z,5.70
2019-05-25T22:59:28.182Z,5.33
2019-05-25T23:04:30.370Z,4.80
2019-05-25T23:09:32.433Z,5.50
2019-05-25T23:14:34.526Z,7.23
2019-05-25T23:19:36.609Z,5.50
2019-05-25T23:24:38.659Z,5.83
2019-05-25T23:29:40.720Z,6.60
2019-05-25T23:34:42.752Z,5.03
2019-05-25T23:39:44.789Z,6.00
2019-05-25T23:44:48.056Z,6.17
2019-05-25T23:49:50.097Z,5.47
2019-05-25T23:54:52.224Z,6.80
2019-05-25T23:59:54.275Z,8.13
